createdAt,value
2019-04-07T13:22:53.140Z,22.00
2019-04-07T13:26:03.821Z,22.50
2019-04-07T13:29:11.849Z,21.30
2019-04-07T13:32:20.654Z,21.30
2019-04-07T13:35:32.010Z,22.50
2019-04-07T13:38:37.154Z,21.70
2019-04-07T13:41:45.859Z,21.60
2019-04-07T13:45:04.497Z,21.90
2019-04-07T13:48:25.936Z,21.10
2019-04-07T13:51:36.709Z,21.30
2019-04-07T13:54:42.278Z,21.30
2019-04-07T13:57:48.270Z,20.80
2019-04-07T14:00:56.314Z,20.20
2019-04-07T14:04:05.606Z,19.40
2019-04-07T14:07:11.639Z,19.20
2019-04-07T14:10:17.115Z,19.50
2019-04-07T14:13:40.675Z,19.30
2019-04-07T14:16:48.687Z,19.80
2019-04-07T14:20:10.356Z,19.60
2019-04-07T14:23:18.657Z,18.90
2019-04-07T14:26:23.623Z,18.50
2019-04-07T14:29:29.569Z,18.00
2019-04-07T14:32:41.592Z,17.70
2019-04-07T14:35:47.703Z,17.60
2019-04-07T14:38:53.190Z,18.50
2019-04-07T14:42:04.762Z,20.00
2019-04-07T14:45:05.615Z,21.30
2019-04-07T14:48:11.368Z,21.60
2019-04-07T14:51:17.527Z,21.90
2019-04-07T14:54:27.023Z,22.80
2019-04-07T14:57:41.512Z,22.30
2019-04-07T15:00:57.199Z,22.00
2019-04-07T15:04:02.229Z,21.70
2019-04-07T15:07:09.172Z,22.30
2019-04-07T15:10:16.863Z,22.50
2019-04-07T15:13:23.938Z,22.30
2019-04-07T15:16:27.385Z,22.80
2019-04-07T15:19:31.099Z,22.40
2019-04-07T15:22:34.608Z,22.80
2019-04-07T15:25:42.804Z,23.00
2019-04-07T15:28:44.632Z,22.90
2019-04-07T15:31:50.787Z,23.10
2019-04-07T15:34:54.590Z,22.50
2019-04-07T15:37:59.080Z,22.50
2019-04-07T15:41:07.716Z,23.00
2019-04-07T15:44:10.058Z,22.90
2019-04-07T15:47:13.177Z,22.30
2019-04-07T15:50:16.792Z,21.40
2019-04-07T15:53:20.933Z,21.50
2019-04-07T15:56:24.570Z,20.70
2019-04-07T15:59:29.748Z,20.40
2019-04-07T16:02:34.539Z,19.80
2019-04-07T16:05:42.424Z,19.80
2019-04-07T16:08:43.169Z,20.40
2019-04-07T16:11:49.232Z,20.50
2019-04-07T16:14:51.757Z,20.80
2019-04-07T16:17:55.568Z,20.60
2019-04-07T16:21:00.691Z,21.20
2019-04-07T16:24:06.190Z,21.70
2019-04-07T16:27:10.883Z,21.60
2019-04-07T16:30:16.425Z,20.60
2019-04-07T16:33:20.522Z,19.90
2019-04-07T16:36:25.543Z,18.80
2019-04-07T16:39:34.121Z,18.00
2019-04-07T16:42:36.111Z,17.10
2019-04-07T16:45:44.167Z,16.40
2019-04-07T16:48:46.400Z,15.80
2019-04-07T16:51:49.837Z,15.20
2019-04-07T16:54:53.447Z,14.80
2019-04-07T16:57:59.423Z,14.50
2019-04-07T17:01:02.046Z,14.10
2019-04-07T17:04:06.318Z,13.90
2019-04-07T17:07:14.181Z,13.50
2019-04-07T17:10:15.134Z,13.20
2019-04-07T17:13:28.038Z,12.90
2019-04-07T17:16:25.028Z,12.60
2019-04-07T17:19:28.553Z,12.30
2019-04-07T17:22:32.597Z,11.90
2019-04-07T17:25:36.306Z,11.60
2019-04-07T17:28:44.600Z,11.30
2019-04-07T17:31:45.620Z,10.90
2019-04-07T17:34:50.820Z,10.70
2019-04-07T17:37:59.808Z,10.40
2019-04-07T17:41:01.334Z,10.20
2019-04-07T17:44:13.220Z,10.00
2019-04-07T17:47:15.849Z,9.80
2019-04-07T17:50:23.429Z,9.70
2019-04-07T17:53:38.381Z,9.50
2019-04-07T17:56:43.496Z,9.40
2019-04-07T17:59:49.392Z,9.40
2019-04-07T18:03:05.283Z,9.20
2019-04-07T18:06:19.563Z,9.10
2019-04-07T18:09:44.966Z,8.90
2019-04-07T18:12:54.087Z,8.80
2019-04-07T18:15:59.881Z,8.70
2019-04-07T18:19:05.596Z,8.60
2019-04-07T18:22:27.475Z,8.50
2019-04-07T18:25:50.553Z,8.40
2019-04-07T18:28:59.620Z,8.20
2019-04-07T18:32:16.539Z,8.10
2019-04-07T18:35:43.252Z,8.00
2019-04-07T18:38:54.948Z,7.90
2019-04-07T18:42:02.053Z,7.80
2019-04-07T18:45:25.508Z,7.60
2019-04-07T18:48:34.731Z,7.50
2019-04-07T18:51:48.356Z,7.40
2019-04-07T18:58:53.449Z,7.30
2019-04-07T19:04:01.280Z,7.10
2019-04-07T19:09:28.311Z,7.00
2019-04-07T19:14:44.625Z,6.90
2019-04-07T19:19:49.391Z,6.80
2019-04-07T19:24:58.157Z,6.70
2019-04-07T19:30:19.426Z,6.50
2019-04-07T19:35:40.681Z,6.40
2019-04-07T19:40:53.214Z,6.40
2019-04-07T19:46:04.802Z,6.40
2019-04-07T19:51:17.731Z,6.20
2019-04-07T19:56:40.075Z,6.20
2019-04-07T20:01:46.174Z,6.10
2019-04-07T20:06:59.543Z,5.90
2019-04-07T20:12:16.258Z,5.80
2019-04-07T20:17:34.439Z,5.60
2019-04-07T20:22:40.033Z,5.50
2019-04-07T20:28:02.288Z,5.40
2019-04-07T20:33:11.780Z,5.30
2019-04-07T20:38:35.847Z,5.20
2019-04-07T20:43:39.381Z,5.20
2019-04-07T20:48:43.498Z,5.10
2019-04-07T20:55:42.844Z,4.90
2019-04-07T20:59:53.080Z,4.70
2019-04-07T21:03:55.654Z,4.70
2019-04-07T21:08:00.728Z,4.60
2019-04-07T21:12:14.863Z,4.60
2019-04-07T21:16:23.496Z,4.50
2019-04-07T21:24:58.687Z,4.30
2019-04-07T21:29:02.407Z,4.20
2019-04-07T21:33:08.963Z,4.20
2019-04-07T21:37:14.791Z,4.10
2019-04-07T21:41:17.391Z,4.00
2019-04-07T21:45:35.378Z,3.90
2019-04-07T21:49:37.199Z,3.80
2019-04-07T21:53:43.163Z,3.80
2019-04-07T21:57:59.795Z,3.70
2019-04-07T22:02:13.369Z,3.70
2019-04-07T22:06:26.547Z,3.70
2019-04-07T22:10:27.566Z,3.70
2019-04-07T22:14:28.888Z,3.50
2019-04-07T22:18:30.369Z,3.50
2019-04-07T22:22:33.220Z,3.50
2019-04-07T22:26:35.310Z,3.40
2019-04-07T22:30:39.919Z,3.40
2019-04-07T22:34:39.970Z,3.40
2019-04-07T22:38:41.239Z,3.30
2019-04-07T22:42:45.490Z,3.30
2019-04-07T22:46:48.042Z,3.20
2019-04-07T22:50:49.606Z,3.20
2019-04-07T22:54:51.918Z,3.20
2019-04-07T22:58:54.112Z,3.20
2019-04-07T23:02:56.007Z,3.20
2019-04-07T23:06:57.280Z,3.20
2019-04-07T23:10:58.739Z,3.10
2019-04-07T23:14:59.990Z,3.10
2019-04-07T23:19:02.627Z,3.10
2019-04-07T23:23:04.728Z,3.00
2019-04-07T23:27:06.248Z,2.90
2019-04-07T23:31:07.574Z,2.80
2019-04-07T23:35:09.157Z,2.80
2019-04-07T23:39:11.115Z,2.80
2019-04-07T23:43:13.191Z,2.70
2019-04-07T23:47:15.271Z,2.60
2019-04-07T23:51:17.156Z,2.70
2019-04-07T23:55:18.414Z,2.70
2019-04-07T23:59:20.760Z,2.70
